sensor_id;sensor_type;location;lat;lon;timestamp;pressure;altitude;pressure_sealevel;temperature;humidity
14343;BME280;7255;53.596;9.960;2023-04-25T00:00:59;100158.03;;;7.90;nan
14343;BME280;7255;53.596;9.960;2023-04-25T00:03:25;100161.41;;;7.79;nan
14343;BME280;7255;53.596;9.960;2023-04-25T00:05:51;100149.44;;;7.81;nan
14343;BME280;7255;53.596;9.960;2023-04-25T00:08:19;100161.03;;;7.75;nan
14343;BME280;7255;53.596;9.960;2023-04-25T00:10:46;100163.19;;;7.85;nan
14343;BME280;7255;53.596;9.960;2023-04-25T00:13:14;100167.56;;;7.79;nan
14343;BME280;7255;53.596;9.960;2023-04-25T00:15:42;100170.09;;;7.74;nan
14343;BME280;7255;53.596;9.960;2023-04-25T00:18:09;100172.59;;;7.69;nan
14343;BME280;7255;53.596;9.960;2023-04-25T00:20:36;100163.28;;;7.53;nan
14343;BME280;7255;53.596;9.960;2023-04-25T00:23:02;100161.69;;;7.45;nan
14343;BME280;7255;53.596;9.960;2023-04-25T00:25:30;100167.50;;;7.36;nan
14343;BME280;7255;53.596;9.960;2023-04-25T00:27:56;100170.00;;;7.30;nan
14343;BME280;7255;53.596;9.960;2023-04-25T00:30:23;100177.41;;;7.35;nan
14343;BME280;7255;53.596;9.960;2023-04-25T00:32:49;100172.47;;;7.32;nan
14343;BME280;7255;53.596;9.960;2023-04-25T00:35:15;100162.97;;;7.36;nan
14343;BME280;7255;53.596;9.960;2023-04-25T00:37:42;100161.84;;;7.25;nan
14343;BME280;7255;53.596;9.960;2023-04-25T00:40:09;100175.34;;;7.30;nan
14343;BME280;7255;53.596;9.960;2023-04-25T00:42:37;100172.47;;;7.32;nan
14343;BME280;7255;53.596;9.960;2023-04-25T00:45:05;100179.47;;;7.33;nan
14343;BME280;7255;53.596;9.960;2023-04-25T00:47:33;100189.25;;;7.46;nan
14343;BME280;7255;53.596;9.960;2023-04-25T00:49:59;100191.34;;;7.37;nan
14343;BME280;7255;53.596;9.960;2023-04-25T00:52:25;100195.03;;;7.43;nan
14343;BME280;7255;53.596;9.960;2023-04-25T00:54:52;100197.13;;;7.34;nan
14343;BME280;7255;53.596;9.960;2023-04-25T00:57:18;100190.69;;;7.17;nan
14343;BME280;7255;53.596;9.960;2023-04-25T00:59:46;100183.28;;;7.12;nan
14343;BME280;7255;53.596;9.960;2023-04-25T01:02:12;100176.75;;;7.08;nan
14343;BME280;7255;53.596;9.960;2023-04-25T01:04:39;100186.56;;;7.14;nan
14343;BME280;7255;53.596;9.960;2023-04-25T01:07:06;100185.28;;;7.23;nan
14343;BME280;7255;53.596;9.960;2023-04-25T01:09:32;100183.66;;;7.22;nan
14343;BME280;7255;53.596;9.960;2023-04-25T01:11:58;100187.34;;;7.21;nan
14343;BME280;7255;53.596;9.960;2023-04-25T01:14:25;100193.59;;;7.08;nan
14343;BME280;7255;53.596;9.960;2023-04-25T01:16:52;100196.84;;;7.17;nan
14343;BME280;7255;53.596;9.960;2023-04-25T01:19:19;100202.19;;;7.17;nan
14343;BME280;7255;53.596;9.960;2023-04-25T01:21:47;100193.97;;;7.12;nan
14343;BME280;7255;53.596;9.960;2023-04-25T01:24:14;100194.75;;;7.19;nan
14343;BME280;7255;53.596;9.960;2023-04-25T01:26:41;100200.97;;;7.13;nan
14343;BME280;7255;53.596;9.960;2023-04-25T01:29:09;100187.41;;;7.15;nan
14343;BME280;7255;53.596;9.960;2023-04-25T01:31:36;100195.19;;;7.16;nan
14343;BME280;7255;53.596;9.960;2023-04-25T01:34:03;100203.47;;;7.08;nan
14343;BME280;7255;53.596;9.960;2023-04-25T01:36:29;100197.69;;;7.11;nan
14343;BME280;7255;53.596;9.960;2023-04-25T01:38:57;100198.12;;;7.08;nan
14343;BME280;7255;53.596;9.960;2023-04-25T01:41:24;100202.16;;;7.24;nan
14343;BME280;7255;53.596;9.960;2023-04-25T01:43:50;100196.91;;;7.04;nan
14343;BME280;7255;53.596;9.960;2023-04-25T01:46:17;100197.75;;;6.98;nan
14343;BME280;7255;53.596;9.960;2023-04-25T01:48:43;100208.84;;;7.01;nan
14343;BME280;7255;53.596;9.960;2023-04-25T01:51:10;100212.88;;;7.10;nan
14343;BME280;7255;53.596;9.960;2023-04-25T01:53:37;100207.16;;;7.07;nan
14343;BME280;7255;53.596;9.960;2023-04-25T01:56:05;100211.28;;;7.09;nan
14343;BME280;7255;53.596;9.960;2023-04-25T01:58:32;100218.62;;;7.14;nan
14343;BME280;7255;53.596;9.960;2023-04-25T02:00:58;100221.94;;;7.09;nan
14343;BME280;7255;53.596;9.960;2023-04-25T02:03:25;100228.09;;;7.10;nan
14343;BME280;7255;53.596;9.960;2023-04-25T02:05:51;100222.78;;;7.03;nan
14343;BME280;7255;53.596;9.960;2023-04-25T02:08:18;100223.63;;;7.04;nan
14343;BME280;7255;53.596;9.960;2023-04-25T02:10:44;100234.34;;;6.97;nan
14343;BME280;7255;53.596;9.960;2023-04-25T02:13:11;100220.84;;;6.85;nan
14343;BME280;7255;53.596;9.960;2023-04-25T02:15:38;100221.62;;;6.92;nan
14343;BME280;7255;53.596;9.960;2023-04-25T02:18:04;100232.72;;;6.96;nan
14343;BME280;7255;53.596;9.960;2023-04-25T02:20:32;100232.28;;;6.99;nan
14343;BME280;7255;53.596;9.960;2023-04-25T02:22:58;100235.94;;;7.05;nan
14343;BME280;7255;53.596;9.960;2023-04-25T02:25:25;100232.28;;;6.99;nan
14343;BME280;7255;53.596;9.960;2023-04-25T02:27:51;100248.75;;;6.96;nan
14343;BME280;7255;53.596;9.960;2023-04-25T02:30:20;100238.44;;;7.00;nan
14343;BME280;7255;53.596;9.960;2023-04-25T02:32:46;100246.63;;;7.05;nan
14343;BME280;7255;53.596;9.960;2023-04-25T02:35:12;100239.28;;;6.93;nan
14343;BME280;7255;53.596;9.960;2023-04-25T02:37:39;100240.09;;;6.94;nan
14343;BME280;7255;53.596;9.960;2023-04-25T02:40:07;100236.03;;;6.85;nan
14343;BME280;7255;53.596;9.960;2023-04-25T02:42:33;100233.19;;;6.80;nan
14343;BME280;7255;53.596;9.960;2023-04-25T02:45:00;100240.97;;;6.81;nan
14343;BME280;7255;53.596;9.960;2023-04-25T02:47:28;100237.69;;;6.86;nan
14343;BME280;7255;53.596;9.960;2023-04-25T02:49:54;100242.62;;;6.82;nan
14343;BME280;7255;53.596;9.960;2023-04-25T02:52:20;100243.09;;;6.66;nan
14343;BME280;7255;53.596;9.960;2023-04-25T02:54:47;100240.63;;;6.64;nan
14343;BME280;7255;53.596;9.960;2023-04-25T02:57:13;100249.63;;;6.70;nan
14343;BME280;7255;53.596;9.960;2023-04-25T02:59:40;100237.34;;;6.55;nan
14343;BME280;7255;53.596;9.960;2023-04-25T03:02:06;100235.31;;;6.58;nan
14343;BME280;7255;53.596;9.960;2023-04-25T03:04:33;100239.44;;;6.53;nan
14343;BME280;7255;53.596;9.960;2023-04-25T03:07:00;100234.53;;;6.50;nan
14343;BME280;7255;53.596;9.960;2023-04-25T03:09:26;100237.81;;;6.46;nan
14343;BME280;7255;53.596;9.960;2023-04-25T03:11:53;100227.13;;;6.39;nan
14343;BME280;7255;53.596;9.960;2023-04-25T03:14:19;100228.78;;;6.40;nan
14343;BME280;7255;53.596;9.960;2023-04-25T03:16:45;100242.38;;;6.25;nan
14343;BME280;7255;53.596;9.960;2023-04-25T03:19:12;100238.66;;;6.33;nan
14343;BME280;7255;53.596;9.960;2023-04-25T03:21:42;100244.81;;;6.40;nan
14343;BME280;7255;53.596;9.960;2023-04-25T03:24:08;100242.75;;;6.42;nan
14343;BME280;7255;53.596;9.960;2023-04-25T03:26:36;100257.94;;;6.35;nan
14343;BME280;7255;53.596;9.960;2023-04-25T03:29:02;100246.91;;;6.11;nan
14343;BME280;7255;53.596;9.960;2023-04-25T03:31:29;100249.34;;;5.93;nan
14343;BME280;7255;53.596;9.960;2023-04-25T03:33:55;100248.50;;;5.86;nan
14343;BME280;7255;53.596;9.960;2023-04-25T03:36:21;100252.22;;;5.85;nan
14343;BME280;7255;53.596;9.960;2023-04-25T03:38:49;100250.97;;;5.81;nan
14343;BME280;7255;53.596;9.960;2023-04-25T03:41:16;100254.25;;;5.69;nan
14343;BME280;7255;53.596;9.960;2023-04-25T03:43:42;100250.56;;;5.70;nan
14343;BME280;7255;53.596;9.960;2023-04-25T03:46:08;100245.66;;;5.74;nan
14343;BME280;7255;53.596;9.960;2023-04-25T03:48:34;100254.25;;;5.69;nan
14343;BME280;7255;53.596;9.960;2023-04-25T03:51:01;100257.13;;;5.74;nan
14343;BME280;7255;53.596;9.960;2023-04-25T03:53:27;100262.47;;;5.74;nan
14343;BME280;7255;53.596;9.960;2023-04-25T03:55:55;100261.66;;;5.74;nan
14343;BME280;7255;53.596;9.960;2023-04-25T03:58:21;100265.75;;;5.76;nan
14343;BME280;7255;53.596;9.960;2023-04-25T04:00:49;100260.41;;;5.76;nan
14343;BME280;7255;53.596;9.960;2023-04-25T04:03:15;100272.72;;;5.77;nan
14343;BME280;7255;53.596;9.960;2023-04-25T04:05:42;100257.13;;;5.74;nan
14343;BME280;7255;53.596;9.960;2023-04-25T04:08:08;100265.75;;;5.70;nan
14343;BME280;7255;53.596;9.960;2023-04-25T04:10:34;100267.37;;;5.64;nan
14343;BME280;7255;53.596;9.960;2023-04-25T04:13:02;100263.28;;;5.62;nan
14343;BME280;7255;53.596;9.960;2023-04-25T04:15:28;100274.75;;;5.62;nan
14343;BME280;7255;53.596;9.960;2023-04-25T04:17:58;100274.75;;;5.55;nan
14343;BME280;7255;53.596;9.960;2023-04-25T04:20:27;100272.25;;;5.47;nan
14343;BME280;7255;53.596;9.960;2023-04-25T04:22:53;100284.56;;;5.48;nan
14343;BME280;7255;53.596;9.960;2023-04-25T04:25:20;100282.09;;;5.47;nan
14343;BME280;7255;53.596;9.960;2023-04-25T04:27:46;100278.81;;;5.45;nan
14343;BME280;7255;53.596;9.960;2023-04-25T04:30:14;100282.09;;;5.47;nan
14343;BME280;7255;53.596;9.960;2023-04-25T04:32:40;100286.22;;;5.43;nan
14343;BME280;7255;53.596;9.960;2023-04-25T04:35:08;100297.25;;;5.39;nan
14343;BME280;7255;53.596;9.960;2023-04-25T04:37:36;100294.41;;;5.48;nan
14343;BME280;7255;53.596;9.960;2023-04-25T04:40:03;100299.75;;;5.68;nan
14343;BME280;7255;53.596;9.960;2023-04-25T04:42:30;100302.66;;;5.66;nan
14343;BME280;7255;53.596;9.960;2023-04-25T04:44:56;100304.72;;;5.77;nan
14343;BME280;7255;53.596;9.960;2023-04-25T04:47:24;100309.62;;;5.81;nan
14343;BME280;7255;53.596;9.960;2023-04-25T04:49:55;100314.56;;;5.77;nan
14343;BME280;7255;53.596;9.960;2023-04-25T04:52:22;100321.53;;;5.91;nan
14343;BME280;7255;53.596;9.960;2023-04-25T04:54:48;100316.62;;;5.88;nan
14343;BME280;7255;53.596;9.960;2023-04-25T04:57:14;100319.09;;;5.90;nan
14343;BME280;7255;53.596;9.960;2023-04-25T04:59:41;100324.06;;;6.00;nan
14343;BME280;7255;53.596;9.960;2023-04-25T05:02:07;100322.41;;;6.05;nan
14343;BME280;7255;53.596;9.960;2023-04-25T05:04:35;100330.19;;;6.13;nan
14343;BME280;7255;53.596;9.960;2023-04-25T05:07:02;100325.69;;;6.07;nan
14343;BME280;7255;53.596;9.960;2023-04-25T05:09:28;100339.25;;;6.19;nan
14343;BME280;7255;53.596;9.960;2023-04-25T05:11:55;100337.19;;;6.21;nan
14343;BME280;7255;53.596;9.960;2023-04-25T05:14:21;100350.31;;;6.23;nan
14343;BME280;7255;53.596;9.960;2023-04-25T05:16:48;100345.00;;;6.03;nan
14343;BME280;7255;53.596;9.960;2023-04-25T05:19:14;100344.88;;;5.69;nan
14343;BME280;7255;53.596;9.960;2023-04-25T05:21:42;100345.69;;;5.63;nan
14343;BME280;7255;53.596;9.960;2023-04-25T05:24:09;100343.25;;;5.68;nan
14343;BME280;7255;53.596;9.960;2023-04-25T05:26:35;100343.19;;;5.55;nan
14343;BME280;7255;53.596;9.960;2023-04-25T05:29:02;100350.62;;;5.66;nan
14343;BME280;7255;53.596;9.960;2023-04-25T05:31:28;100355.16;;;5.72;nan
14343;BME280;7255;53.596;9.960;2023-04-25T05:33:54;100351.06;;;5.70;nan
14343;BME280;7255;53.596;9.960;2023-04-25T05:36:21;100366.66;;;5.93;nan
14343;BME280;7255;53.596;9.960;2023-04-25T05:38:48;100369.19;;;6.01;nan
14343;BME280;7255;53.596;9.960;2023-04-25T05:41:15;100384.38;;;6.21;nan
14343;BME280;7255;53.596;9.960;2023-04-25T05:43:41;100391.78;;;6.25;nan
14343;BME280;7255;53.596;9.960;2023-04-25T05:46:10;100386.84;;;6.42;nan
14343;BME280;7255;53.596;9.960;2023-04-25T05:48:37;100388.47;;;6.50;nan
14343;BME280;7255;53.596;9.960;2023-04-25T05:51:03;100374.12;;;6.38;nan
14343;BME280;7255;53.596;9.960;2023-04-25T05:53:30;100377.41;;;6.46;nan
14343;BME280;7255;53.596;9.960;2023-04-25T05:55:57;100391.38;;;6.62;nan
14343;BME280;7255;53.596;9.960;2023-04-25T05:58:24;100380.28;;;6.58;nan
14343;BME280;7255;53.596;9.960;2023-04-25T06:00:50;100387.66;;;6.63;nan
14343;BME280;7255;53.596;9.960;2023-04-25T06:03:17;100391.78;;;6.59;nan
14343;BME280;7255;53.596;9.960;2023-04-25T06:05:43;100384.38;;;6.67;nan
14343;BME280;7255;53.596;9.960;2023-04-25T06:08:10;100401.22;;;6.68;nan
14343;BME280;7255;53.596;9.960;2023-04-25T06:10:36;100411.88;;;6.81;nan
14343;BME280;7255;53.596;9.960;2023-04-25T06:13:04;100402.44;;;6.72;nan
14343;BME280;7255;53.596;9.960;2023-04-25T06:15:31;100416.41;;;6.74;nan
14343;BME280;7255;53.596;9.960;2023-04-25T06:17:58;100406.13;;;6.84;nan
14343;BME280;7255;53.596;9.960;2023-04-25T06:20:24;100407.34;;;7.02;nan
14343;BME280;7255;53.596;9.960;2023-04-25T06:22:51;100426.59;;;7.17;nan
14343;BME280;7255;53.596;9.960;2023-04-25T06:25:18;100414.72;;;7.06;nan
14343;BME280;7255;53.596;9.960;2023-04-25T06:27:44;100422.53;;;7.08;nan
14343;BME280;7255;53.596;9.960;2023-04-25T06:30:12;100420.88;;;7.07;nan
14343;BME280;7255;53.596;9.960;2023-04-25T06:32:39;100420.88;;;7.07;nan
14343;BME280;7255;53.596;9.960;2023-04-25T06:35:06;100415.97;;;7.04;nan
14343;BME280;7255;53.596;9.960;2023-04-25T06:37:32;100415.12;;;7.03;nan
14343;BME280;7255;53.596;9.960;2023-04-25T06:39:58;100400.38;;;6.87;nan
14343;BME280;7255;53.596;9.960;2023-04-25T06:42:25;100418.06;;;6.82;nan
14343;BME280;7255;53.596;9.960;2023-04-25T06:44:51;100432.00;;;6.90;nan
14343;BME280;7255;53.596;9.960;2023-04-25T06:47:19;100422.16;;;6.84;nan
14343;BME280;7255;53.596;9.960;2023-04-25T06:49:45;100415.53;;;7.07;nan
14343;BME280;7255;53.596;9.960;2023-04-25T06:52:11;100445.09;;;7.25;nan
14343;BME280;7255;53.596;9.960;2023-04-25T06:54:37;100432.34;;;7.21;nan
14343;BME280;7255;53.596;9.960;2023-04-25T06:57:04;100437.69;;;7.27;nan
14343;BME280;7255;53.596;9.960;2023-04-25T06:59:30;100433.91;;;7.55;nan
14343;BME280;7255;53.596;9.960;2023-04-25T07:01:57;100442.94;;;7.54;nan
14343;BME280;7255;53.596;9.960;2023-04-25T07:04:25;100435.59;;;7.43;nan
14343;BME280;7255;53.596;9.960;2023-04-25T07:06:51;100436.75;;;7.60;nan
14343;BME280;7255;53.596;9.960;2023-04-25T07:09:18;100447.06;;;7.50;nan
14343;BME280;7255;53.596;9.960;2023-04-25T07:11:44;100447.53;;;7.33;nan
14343;BME280;7255;53.596;9.960;2023-04-25T07:14:11;100443.38;;;7.51;nan
14343;BME280;7255;53.596;9.960;2023-04-25T07:16:37;100442.59;;;7.30;nan
14343;BME280;7255;53.596;9.960;2023-04-25T07:19:03;100443.84;;;7.21;nan
14343;BME280;7255;53.596;9.960;2023-04-25T07:21:31;100445.88;;;7.39;nan
14343;BME280;7255;53.596;9.960;2023-04-25T07:23:58;100455.31;;;7.42;nan
14343;BME280;7255;53.596;9.960;2023-04-25T07:26:24;100461.06;;;7.45;nan
14343;BME280;7255;53.596;9.960;2023-04-25T07:28:50;100457.34;;;7.53;nan
14343;BME280;7255;53.596;9.960;2023-04-25T07:31:17;100468.91;;;7.40;nan
14343;BME280;7255;53.596;9.960;2023-04-25T07:33:43;100482.44;;;7.45;nan
14343;BME280;7255;53.596;9.960;2023-04-25T07:36:10;100461.50;;;7.36;nan
14343;BME280;7255;53.596;9.960;2023-04-25T07:38:38;100467.69;;;7.29;nan
14343;BME280;7255;53.596;9.960;2023-04-25T07:41:05;100457.78;;;7.43;nan
14343;BME280;7255;53.596;9.960;2023-04-25T07:43:31;100459.78;;;7.61;nan
14343;BME280;7255;53.596;9.960;2023-04-25T07:45:57;100464.31;;;7.67;nan
14343;BME280;7255;53.596;9.960;2023-04-25T07:48:24;100466.66;;;7.89;nan
14343;BME280;7255;53.596;9.960;2023-04-25T07:50:50;100464.47;;;8.11;nan
14343;BME280;7255;53.596;9.960;2023-04-25T07:53:16;100474.37;;;8.10;nan
14343;BME280;7255;53.596;9.960;2023-04-25T07:55:45;100470.97;;;8.28;nan
14343;BME280;7255;53.596;9.960;2023-04-25T07:58:11;100480.41;;;8.31;nan
14343;BME280;7255;53.596;9.960;2023-04-25T08:00:38;100473.94;;;8.14;nan
14343;BME280;7255;53.596;9.960;2023-04-25T08:03:04;100483.41;;;8.09;nan
14343;BME280;7255;53.596;9.960;2023-04-25T08:05:31;100494.00;;;8.36;nan
14343;BME280;7255;53.596;9.960;2023-04-25T08:07:57;100494.06;;;8.23;nan
14343;BME280;7255;53.596;9.960;2023-04-25T08:10:24;100472.34;;;8.06;nan
14343;BME280;7255;53.596;9.960;2023-04-25T08:12:52;100505.19;;;8.20;nan
14343;BME280;7255;53.596;9.960;2023-04-25T08:15:18;100501.37;;;8.41;nan
14343;BME280;7255;53.596;9.960;2023-04-25T08:17:45;100505.91;;;8.40;nan
14343;BME280;7255;53.596;9.960;2023-04-25T08:20:12;100514.13;;;8.45;nan
14343;BME280;7255;53.596;9.960;2023-04-25T08:22:38;100515.44;;;8.29;nan
14343;BME280;7255;53.596;9.960;2023-04-25T08:25:05;100515.41;;;8.43;nan
14343;BME280;7255;53.596;9.960;2023-04-25T08:27:31;100516.59;;;8.40;nan
14343;BME280;7255;53.596;9.960;2023-04-25T08:29:59;100519.06;;;8.48;nan
14343;BME280;7255;53.596;9.960;2023-04-25T08:32:25;100514.81;;;8.66;nan
14343;BME280;7255;53.596;9.960;2023-04-25T08:34:51;100522.59;;;8.74;nan
14343;BME280;7255;53.596;9.960;2023-04-25T08:37:19;100524.53;;;8.92;nan
14343;BME280;7255;53.596;9.960;2023-04-25T08:39:45;100523.69;;;8.92;nan
14343;BME280;7255;53.596;9.960;2023-04-25T08:42:14;100529.41;;;8.45;nan
14343;BME280;7255;53.596;9.960;2023-04-25T08:44:41;100521.63;;;8.30;nan
14343;BME280;7255;53.596;9.960;2023-04-25T08:47:08;100529.09;;;8.15;nan
14343;BME280;7255;53.596;9.960;2023-04-25T08:49:35;100540.53;;;8.42;nan
14343;BME280;7255;53.596;9.960;2023-04-25T08:52:03;100535.97;;;8.42;nan
14343;BME280;7255;53.596;9.960;2023-04-25T08:54:31;100542.84;;;8.70;nan
14343;BME280;7255;53.596;9.960;2023-04-25T08:57:01;100551.63;;;8.45;nan
14343;BME280;7255;53.596;9.960;2023-04-25T08:59:29;100536.44;;;8.33;nan
14343;BME280;7255;53.596;9.960;2023-04-25T09:01:56;100566.81;;;8.52;nan
14343;BME280;7255;53.596;9.960;2023-04-25T09:04:24;100564.16;;;8.83;nan
14343;BME280;7255;53.596;9.960;2023-04-25T09:06:50;100578.06;;;8.99;nan
14343;BME280;7255;53.596;9.960;2023-04-25T09:09:17;100574.12;;;8.70;nan
14343;BME280;7255;53.596;9.960;2023-04-25T09:11:43;100577.91;;;8.62;nan
14343;BME280;7255;53.596;9.960;2023-04-25T09:14:13;100582.53;;;8.35;nan
14343;BME280;7255;53.596;9.960;2023-04-25T09:16:58;100576.78;;;8.38;nan
14343;BME280;7255;53.596;9.960;2023-04-25T09:19:28;100584.16;;;8.49;nan
14343;BME280;7255;53.596;9.960;2023-04-25T09:21:55;100586.63;;;8.51;nan
14343;BME280;7255;53.596;9.960;2023-04-25T09:24:30;100587.47;;;8.44;nan
14343;BME280;7255;53.596;9.960;2023-04-25T09:26:57;100583.78;;;8.32;nan
14343;BME280;7255;53.596;9.960;2023-04-25T09:29:29;100592.75;;;8.58;nan
14343;BME280;7255;53.596;9.960;2023-04-25T09:32:10;100601.75;;;8.70;nan
14343;BME280;7255;53.596;9.960;2023-04-25T09:34:40;100626.25;;;9.05;nan
14343;BME280;7255;53.596;9.960;2023-04-25T09:37:09;100622.81;;;8.60;nan
14343;BME280;7255;53.596;9.960;2023-04-25T09:39:36;100598.38;;;7.71;nan
14343;BME280;7255;53.596;9.960;2023-04-25T09:42:03;100622.25;;;6.99;nan
14343;BME280;7255;53.596;9.960;2023-04-25T09:44:29;100625.50;;;6.74;nan
14343;BME280;7255;53.596;9.960;2023-04-25T09:46:56;100613.53;;;6.57;nan
14343;BME280;7255;53.596;9.960;2023-04-25T09:49:22;100605.72;;;6.55;nan
14343;BME280;7255;53.596;9.960;2023-04-25T09:51:56;100614.81;;;6.81;nan
14343;BME280;7255;53.596;9.960;2023-04-25T09:54:23;100611.59;;;6.92;nan
14343;BME280;7255;53.596;9.960;2023-04-25T09:56:51;100614.84;;;6.88;nan
14343;BME280;7255;53.596;9.960;2023-04-25T09:59:19;100623.50;;;7.23;nan
14343;BME280;7255;53.596;9.960;2023-04-25T10:01:48;100605.84;;;7.36;nan
14343;BME280;7255;53.596;9.960;2023-04-25T10:04:16;100616.94;;;7.59;nan
14343;BME280;7255;53.596;9.960;2023-04-25T10:06:45;100625.56;;;7.61;nan
14343;BME280;7255;53.596;9.960;2023-04-25T10:09:13;100562.06;;;8.08;nan
14343;BME280;7255;53.596;9.960;2023-04-25T10:11:41;100636.06;;;8.48;nan
14343;BME280;7255;53.596;9.960;2023-04-25T10:14:07;100650.03;;;8.57;nan
14343;BME280;7255;53.596;9.960;2023-04-25T10:16:34;100653.28;;;8.65;nan
14343;BME280;7255;53.596;9.960;2023-04-25T10:19:02;100647.03;;;8.78;nan
14343;BME280;7255;53.596;9.960;2023-04-25T10:21:31;100647.03;;;8.78;nan
14343;BME280;7255;53.596;9.960;2023-04-25T10:24:00;100681.25;;;8.76;nan
14343;BME280;7255;53.596;9.960;2023-04-25T10:26:28;100652.41;;;8.78;nan
14343;BME280;7255;53.596;9.960;2023-04-25T10:28:56;100672.69;;;8.61;nan
14343;BME280;7255;53.596;9.960;2023-04-25T10:31:23;100684.97;;;8.75;nan
14343;BME280;7255;53.596;9.960;2023-04-25T10:33:49;100653.81;;;8.36;nan
14343;BME280;7255;53.596;9.960;2023-04-25T10:36:17;100670.28;;;8.26;nan
14343;BME280;7255;53.596;9.960;2023-04-25T10:38:44;100658.75;;;8.32;nan
14343;BME280;7255;53.596;9.960;2023-04-25T10:41:11;100653.25;;;8.72;nan
14343;BME280;7255;53.596;9.960;2023-04-25T10:43:39;100654.66;;;9.13;nan
14343;BME280;7255;53.596;9.960;2023-04-25T10:46:15;100664.84;;;9.30;nan
14343;BME280;7255;53.596;9.960;2023-04-25T10:48:46;100662.22;;;9.48;nan
14343;BME280;7255;53.596;9.960;2023-04-25T10:51:15;100666.06;;;9.84;nan
14343;BME280;7255;53.596;9.960;2023-04-25T10:53:43;100675.25;;;10.13;nan
14343;BME280;7255;53.596;9.960;2023-04-25T10:56:10;100661.91;;;10.25;nan
14343;BME280;7255;53.596;9.960;2023-04-25T10:58:42;100701.25;;;10.13;nan
14343;BME280;7255;53.596;9.960;2023-04-25T11:01:08;100673.16;;;9.21;nan
14343;BME280;7255;53.596;9.960;2023-04-25T11:03:37;100671.63;;;9.07;nan
14343;BME280;7255;53.596;9.960;2023-04-25T11:06:04;100675.62;;;8.84;nan
14343;BME280;7255;53.596;9.960;2023-04-25T11:08:39;100684.03;;;8.95;nan
14343;BME280;7255;53.596;9.960;2023-04-25T11:11:12;100678.44;;;9.35;nan
14343;BME280;7255;53.596;9.960;2023-04-25T11:13:38;100674.31;;;9.32;nan
14343;BME280;7255;53.596;9.960;2023-04-25T11:16:08;100673.63;;;9.12;nan
14343;BME280;7255;53.596;9.960;2023-04-25T11:18:34;100680.69;;;9.06;nan
14343;BME280;7255;53.596;9.960;2023-04-25T11:21:00;100687.00;;;8.86;nan
14343;BME280;7255;53.596;9.960;2023-04-25T11:23:26;100701.78;;;8.96;nan
14343;BME280;7255;53.596;9.960;2023-04-25T11:25:53;100697.53;;;9.13;nan
14343;BME280;7255;53.596;9.960;2023-04-25T11:28:20;100712.84;;;9.06;nan
14343;BME280;7255;53.596;9.960;2023-04-25T11:30:47;100696.12;;;8.72;nan
14343;BME280;7255;53.596;9.960;2023-04-25T11:33:15;100694.37;;;8.91;nan
14343;BME280;7255;53.596;9.960;2023-04-25T11:35:41;100693.31;;;8.40;nan
14343;BME280;7255;53.596;9.960;2023-04-25T11:38:07;100704.50;;;8.17;nan
14343;BME280;7255;53.596;9.960;2023-04-25T11:40:35;100695.91;;;7.95;nan
14343;BME280;7255;53.596;9.960;2023-04-25T11:43:01;100697.91;;;8.26;nan
14343;BME280;7255;53.596;9.960;2023-04-25T11:45:27;100698.72;;;8.27;nan
14343;BME280;7255;53.596;9.960;2023-04-25T11:47:54;100706.09;;;8.38;nan
14343;BME280;7255;53.596;9.960;2023-04-25T11:50:22;100699.06;;;8.57;nan
14343;BME280;7255;53.596;9.960;2023-04-25T11:52:48;100719.06;;;9.00;nan
14343;BME280;7255;53.596;9.960;2023-04-25T11:55:15;100722.66;;;9.19;nan
14343;BME280;7255;53.596;9.960;2023-04-25T11:57:42;100732.06;;;9.85;nan
14343;BME280;7255;53.596;9.960;2023-04-25T12:00:10;100743.09;;;10.46;nan
14343;BME280;7255;53.596;9.960;2023-04-25T12:02:37;100738.41;;;10.59;nan
14343;BME280;7255;53.596;9.960;2023-04-25T12:05:06;100739.97;;;10.67;nan
14343;BME280;7255;53.596;9.960;2023-04-25T12:07:35;100735.19;;;10.51;nan
14343;BME280;7255;53.596;9.960;2023-04-25T12:10:04;100730.72;;;10.45;nan
14343;BME280;7255;53.596;9.960;2023-04-25T12:12:32;100750.88;;;10.54;nan
14343;BME280;7255;53.596;9.960;2023-04-25T12:15:08;100749.81;;;10.36;nan
14343;BME280;7255;53.596;9.960;2023-04-25T12:17:34;100751.03;;;10.40;nan
14343;BME280;7255;53.596;9.960;2023-04-25T12:20:06;100760.31;;;10.13;nan
14343;BME280;7255;53.596;9.960;2023-04-25T12:22:34;100731.78;;;9.75;nan
14343;BME280;7255;53.596;9.960;2023-04-25T12:25:03;100746.56;;;9.84;nan
14343;BME280;7255;53.596;9.960;2023-04-25T12:27:30;100751.91;;;9.84;nan
14343;BME280;7255;53.596;9.960;2023-04-25T12:29:57;100740.72;;;9.30;nan
14343;BME280;7255;53.596;9.960;2023-04-25T12:32:24;100739.00;;;9.42;nan
14343;BME280;7255;53.596;9.960;2023-04-25T12:34:51;100750.41;;;9.63;nan
14343;BME280;7255;53.596;9.960;2023-04-25T12:37:18;100760.03;;;10.02;nan
14343;BME280;7255;53.596;9.960;2023-04-25T12:39:44;100770.59;;;10.23;nan
14343;BME280;7255;53.596;9.960;2023-04-25T12:42:12;100761.66;;;10.03;nan
14343;BME280;7255;53.596;9.960;2023-04-25T12:44:39;100753.13;;;9.88;nan
14343;BME280;7255;53.596;9.960;2023-04-25T12:47:05;100773.84;;;10.31;nan
14343;BME280;7255;53.596;9.960;2023-04-25T12:49:32;100784.28;;;10.58;nan
14343;BME280;7255;53.596;9.960;2023-04-25T12:51:58;100788.94;;;10.00;nan
14343;BME280;7255;53.596;9.960;2023-04-25T12:54:25;100804.56;;;9.53;nan
14343;BME280;7255;53.596;9.960;2023-04-25T12:56:51;100795.31;;;9.04;nan
14343;BME280;7255;53.596;9.960;2023-04-25T12:59:19;100804.84;;;8.93;nan
14343;BME280;7255;53.596;9.960;2023-04-25T13:01:46;100783.72;;;9.10;nan
14343;BME280;7255;53.596;9.960;2023-04-25T13:04:12;100789.09;;;9.10;nan
14343;BME280;7255;53.596;9.960;2023-04-25T13:06:38;100790.22;;;9.34;nan
14343;BME280;7255;53.596;9.960;2023-04-25T13:09:04;100825.97;;;9.60;nan
14343;BME280;7255;53.596;9.960;2023-04-25T13:11:31;100800.09;;;9.40;nan
14343;BME280;7255;53.596;9.960;2023-04-25T13:13:58;100802.50;;;9.49;nan
14343;BME280;7255;53.596;9.960;2023-04-25T13:16:26;100848.06;;;9.87;nan
14343;BME280;7255;53.596;9.960;2023-04-25T13:18:52;100824.31;;;8.42;nan
14343;BME280;7255;53.596;9.960;2023-04-25T13:21:18;100817.69;;;7.51;nan
14343;BME280;7255;53.596;9.960;2023-04-25T13:23:45;100807.28;;;7.21;nan
14343;BME280;7255;53.596;9.960;2023-04-25T13:26:11;100806.06;;;7.24;nan
14343;BME280;7255;53.596;9.960;2023-04-25T13:28:38;100802.41;;;7.31;nan
14343;BME280;7255;53.596;9.960;2023-04-25T13:31:05;100778.38;;;6.83;nan